Time;durP1;ratioP1;P1;durP2;ratioP2;P2;SDS_P1;SDS_P2;PMS_P1;PMS_P2;Temp;Humidity;BMP_temperature;BMP_pressure;BME280_temperature;BME280_humidity;BME280_pressure;Samples;Min_cycle;Max_cycle;Signal;HPM_P1;HPM_P2
2023/06/27 00:01:21;;;;;;;11.45;2.00;;;;;;;15.73;100.00;100791.25;4977360;28;20077;-81
2023/06/27 00:03:51;;;;;;;9.98;2.15;;;;;;;15.74;100.00;100795.56;4937534;28;20141;-80
2023/06/27 00:06:21;;;;;;;10.27;3.00;;;;;;;15.74;100.00;100790.25;4955168;28;20445;-82
2023/06/27 00:08:47;;;;;;;7.70;2.10;;;;;;;15.65;100.00;100789.44;4959227;28;20034;-82
2023/06/27 00:11:13;;;;;;;6.28;1.85;;;;;;;15.60;100.00;100783.78;4958635;28;20046;-82
2023/06/27 00:13:41;;;;;;;9.90;1.88;;;;;;;15.56;100.00;100779.81;4983583;28;20122;-82
2023/06/27 00:16:12;;;;;;;8.80;2.08;;;;;;;15.57;100.00;100784.13;4954954;28;20061;-81
2023/06/27 00:18:47;;;;;;;12.07;2.03;;;;;;;15.53;100.00;100777.47;4955884;28;20558;-81
2023/06/27 00:21:17;;;;;;;8.77;1.98;;;;;;;15.53;100.00;100774.81;4976598;28;20029;-82
2023/06/27 00:23:43;;;;;;;7.63;2.20;;;;;;;15.47;100.00;100776.31;4961587;28;20045;-81
2023/06/27 00:26:12;;;;;;;10.18;2.08;;;;;;;15.47;100.00;100769.16;4926172;28;20069;-82
2023/06/27 00:28:38;;;;;;;15.07;2.50;;;;;;;15.48;100.00;100770.00;4972448;28;20481;-81
2023/06/27 00:31:04;;;;;;;9.73;2.03;;;;;;;15.45;100.00;100770.34;4972293;28;20142;-81
2023/06/27 00:33:29;;;;;;;7.53;1.95;;;;;;;15.45;100.00;100773.00;4947264;28;20476;-83
2023/06/27 00:35:57;;;;;;;8.05;2.30;;;;;;;15.45;100.00;100773.00;4949147;28;20037;-84
2023/06/27 00:38:23;;;;;;;10.95;2.47;;;;;;;15.47;100.00;100768.31;4950845;28;20039;-81
2023/06/27 00:40:49;;;;;;;8.20;1.83;;;;;;;15.45;100.00;100754.34;4942090;28;20042;-84
2023/06/27 00:43:14;;;;;;;10.82;2.47;;;;;;;15.43;100.00;100743.84;4957872;28;20058;-81
2023/06/27 00:45:40;;;;;;;11.40;2.72;;;;;;;15.39;100.00;100739.88;4990705;28;20026;-81
2023/06/27 00:48:07;;;;;;;10.25;2.10;;;;;;;15.39;100.00;100731.88;4964203;28;20042;-83
2023/06/27 00:50:34;;;;;;;7.90;2.00;;;;;;;15.36;100.00;100729.53;4941910;28;20145;-81
2023/06/27 00:53:02;;;;;;;7.78;2.47;;;;;;;15.36;100.00;100741.03;4972308;28;20097;-81
2023/06/27 00:55:30;;;;;;;8.18;2.10;;;;;;;15.38;100.00;100743.53;4971869;28;20034;-83
2023/06/27 00:57:56;;;;;;;13.20;2.22;;;;;;;15.41;100.00;100747.69;4971456;28;20034;-82
2023/06/27 01:00:22;;;;;;;10.18;2.22;;;;;;;15.41;100.00;100740.53;4952458;28;20030;-80
2023/06/27 01:02:48;;;;;;;16.38;2.83;;;;;;;15.43;100.00;100735.84;4942634;28;20231;-80
2023/06/27 01:05:17;;;;;;;9.20;2.53;;;;;;;15.43;100.00;100733.19;4949285;28;20038;-81
2023/06/27 01:07:52;;;;;;;7.40;2.05;;;;;;;15.47;100.00;100729.19;4951059;28;20097;-81
2023/06/27 01:10:31;;;;;;;11.07;2.15;;;;;;;15.48;100.00;100720.19;4977091;28;20049;-81
2023/06/27 01:12:56;;;;;;;11.75;3.00;;;;;;;15.46;100.00;100722.22;4972696;28;20041;-82
2023/06/27 01:15:22;;;;;;;11.35;2.38;;;;;;;15.46;100.00;100721.38;4966989;28;20042;-83
2023/06/27 01:17:49;;;;;;;12.95;2.40;;;;;;;15.47;100.00;100718.53;4958934;28;20046;-82
2023/06/27 01:20:16;;;;;;;9.10;2.90;;;;;;;15.49;100.00;100721.88;4953477;28;20034;-83
2023/06/27 01:22:47;;;;;;;9.38;2.38;;;;;;;15.49;100.00;100721.88;4971560;28;20047;-83
2023/06/27 01:25:13;;;;;;;19.85;3.03;;;;;;;15.47;100.00;100715.03;4969205;28;20412;-83
2023/06/27 01:27:39;;;;;;;11.38;3.05;;;;;;;15.45;100.00;100707.22;4950525;28;20050;-81
2023/06/27 01:30:06;;;;;;;14.40;2.05;;;;;;;15.45;100.00;100714.41;4942398;28;20563;-84
2023/06/27 01:32:47;;;;;;;17.70;2.90;;;;;;;15.45;100.00;100709.88;4942622;28;20053;-79
2023/06/27 01:35:41;;;;;;;14.23;2.70;;;;;;;15.44;100.00;100704.72;4953068;28;20046;-81
2023/06/27 01:38:18;;;;;;;12.77;3.20;;;;;;;15.41;100.00;100699.75;4974217;28;20030;-81
2023/06/27 01:40:46;;;;;;;10.00;2.97;;;;;;;15.40;100.00;100692.75;4957593;28;20034;-81
2023/06/27 01:43:14;;;;;;;14.55;2.72;;;;;;;15.40;100.00;100685.59;4958354;28;20046;-84
2023/06/27 01:45:41;;;;;;;12.70;2.95;;;;;;;15.43;100.00;100695.91;4955184;28;20397;-82
2023/06/27 01:48:08;;;;;;;12.05;3.08;;;;;;;15.44;100.00;100692.25;4950902;28;20041;-80
2023/06/27 01:50:34;;;;;;;17.40;3.35;;;;;;;15.43;100.00;100682.56;4942574;28;20038;-81
2023/06/27 01:53:00;;;;;;;14.95;2.78;;;;;;;15.43;100.00;100684.44;4970073;28;20125;-81
2023/06/27 01:55:26;;;;;;;11.45;2.70;;;;;;;15.44;100.00;100684.25;4939054;28;20042;-81
2023/06/27 01:57:53;;;;;;;13.32;2.45;;;;;;;15.45;100.00;100683.25;4935488;28;20050;-80
2023/06/27 02:00:20;;;;;;;12.52;3.00;;;;;;;15.46;100.00;100684.09;4953127;28;20039;-81
2023/06/27 02:02:47;;;;;;;9.20;2.70;;;;;;;15.44;100.00;100684.25;4952704;28;20037;-81
2023/06/27 02:05:14;;;;;;;13.75;2.58;;;;;;;15.41;100.00;100681.94;4954933;28;20053;-80
2023/06/27 02:07:40;;;;;;;13.77;3.58;;;;;;;15.43;100.00;100679.91;4951880;28;20031;-80
2023/06/27 02:10:09;;;;;;;12.38;3.30;;;;;;;15.43;100.00;100681.75;4964602;28;20516;-81
2023/06/27 02:12:38;;;;;;;11.20;2.95;;;;;;;15.46;100.00;100673.44;4963606;28;20043;-82
2023/06/27 02:15:05;;;;;;;16.45;2.90;;;;;;;15.49;100.00;100671.25;4956271;28;20122;-83
2023/06/27 02:17:32;;;;;;;12.43;2.83;;;;;;;15.49;100.00;100663.28;4964405;28;20034;-81
2023/06/27 02:19:58;;;;;;;15.23;3.80;;;;;;;15.46;100.00;100668.09;4951821;28;20039;-81
2023/06/27 02:22:23;;;;;;;9.52;2.75;;;;;;;15.45;100.00;100669.94;4951327;28;20121;-81
2023/06/27 02:24:49;;;;;;;21.27;3.05;;;;;;;15.45;100.00;100661.94;4956111;28;20398;-81
2023/06/27 02:27:16;;;;;;;13.70;2.60;;;;;;;15.45;100.00;100658.47;4954384;28;20093;-81
2023/06/27 02:29:42;;;;;;;16.27;3.05;;;;;;;15.44;100.00;100659.44;4986519;28;20493;-81
2023/06/27 02:32:08;;;;;;;9.65;2.50;;;;;;;15.44;100.00;100651.44;4974250;28;20058;-80
2023/06/27 02:34:34;;;;;;;11.05;3.00;;;;;;;15.45;100.00;100642.47;4921637;28;20061;-81
2023/06/27 02:37:01;;;;;;;10.88;2.72;;;;;;;15.44;100.00;100640.81;4955522;28;20042;-81
2023/06/27 02:39:27;;;;;;;10.73;2.80;;;;;;;15.41;100.00;100636.66;4936380;28;20032;-81
2023/06/27 02:41:53;;;;;;;10.93;3.22;;;;;;;15.40;100.00;100634.97;4959467;28;20564;-81
2023/06/27 02:44:19;;;;;;;15.98;2.63;;;;;;;15.40;100.00;100623.50;4953577;28;20038;-81
2023/06/27 02:46:45;;;;;;;11.32;3.13;;;;;;;15.44;100.00;100627.47;4952051;28;20034;-81
2023/06/27 02:49:11;;;;;;;11.95;3.10;;;;;;;15.41;100.00;100622.50;4959829;28;20387;-80
2023/06/27 02:51:38;;;;;;;14.68;2.97;;;;;;;15.39;100.00;100617.34;4952355;28;20126;-80
2023/06/27 02:54:03;;;;;;;10.77;2.28;;;;;;;15.41;100.00;100617.16;4960723;28;20552;-80
2023/06/27 02:56:29;;;;;;;9.43;2.33;;;;;;;15.38;100.00;100611.19;4968432;28;20063;-80
2023/06/27 02:58:55;;;;;;;13.63;2.53;;;;;;;15.40;100.00;100613.66;4970221;28;20034;-80
2023/06/27 03:01:21;;;;;;;10.85;2.80;;;;;;;15.40;100.00;100607.53;4960015;28;20030;-81
2023/06/27 03:03:47;;;;;;;6.70;2.00;;;;;;;15.35;100.00;100600.88;4961936;28;20050;-81
2023/06/27 03:06:15;;;;;;;11.38;2.63;;;;;;;15.34;100.00;100593.91;4955004;28;20135;-80
2023/06/27 03:08:41;;;;;;;11.35;2.47;;;;;;;15.29;100.00;100590.91;4953161;28;20031;-80
2023/06/27 03:11:07;;;;;;;13.15;2.72;;;;;;;15.30;100.00;100597.06;4964993;28;20039;-81
2023/06/27 03:13:34;;;;;;;18.33;2.78;;;;;;;15.32;100.00;100589.75;4964962;28;20097;-81
2023/06/27 03:16:00;;;;;;;9.07;2.08;;;;;;;15.30;100.00;100592.59;4974421;28;20042;-80
2023/06/27 03:18:28;;;;;;;12.70;2.58;;;;;;;15.30;100.00;100581.94;4953764;28;20038;-80
2023/06/27 03:20:55;;;;;;;8.13;1.92;;;;;;;15.30;100.00;100578.44;4957792;28;20050;-81
2023/06/27 03:23:20;;;;;;;10.27;2.35;;;;;;;15.28;100.00;100572.44;4954588;28;20075;-79
2023/06/27 03:25:46;;;;;;;10.65;2.08;;;;;;;15.30;100.00;100581.09;4973423;28;20038;-80
2023/06/27 03:28:12;;;;;;;7.07;2.13;;;;;;;15.30;100.00;100570.44;4955652;28;20038;-81
2023/06/27 03:30:47;;;;;;;15.43;2.92;;;;;;;15.29;100.00;100579.44;4942877;28;20035;-81
2023/06/27 03:33:15;;;;;;;9.45;2.50;;;;;;;15.27;100.00;100576.13;4939260;28;20042;-82
2023/06/27 03:35:41;;;;;;;13.48;3.00;;;;;;;15.24;100.00;100582.63;4976373;28;20035;-81
2023/06/27 03:38:07;;;;;;;17.23;2.97;;;;;;;15.24;100.00;100575.44;4954379;29;20039;-82
2023/06/27 03:40:33;;;;;;;11.13;3.17;;;;;;;15.21;100.00;100578.47;4957717;28;20827;-82
2023/06/27 03:43:01;;;;;;;11.45;2.65;;;;;;;15.23;100.00;100576.47;4969896;28;20042;-81
2023/06/27 03:45:28;;;;;;;17.25;3.20;;;;;;;15.23;100.00;100588.94;4952823;28;20067;-80
2023/06/27 03:47:54;;;;;;;13.20;2.67;;;;;;;15.23;100.00;100584.44;4998952;28;20043;-82
2023/06/27 03:50:20;;;;;;;16.13;3.15;;;;;;;15.23;100.00;100583.59;4947993;28;20400;-85
2023/06/27 03:52:46;;;;;;;13.75;2.80;;;;;;;15.21;100.00;100589.09;4979119;28;20034;-79
2023/06/27 03:55:11;;;;;;;13.70;3.53;;;;;;;15.22;100.00;100581.97;4958379;28;20419;-80
2023/06/27 03:57:39;;;;;;;10.85;3.05;;;;;;;15.20;100.00;100581.28;4941477;28;20066;-81
2023/06/27 04:00:07;;;;;;;13.57;3.30;;;;;;;15.19;100.00;100583.16;4983531;28;20658;-78
2023/06/27 04:02:41;;;;;;;14.68;3.38;;;;;;;15.17;100.00;100584.31;4978916;28;20034;-81
2023/06/27 04:05:07;;;;;;;16.45;3.50;;;;;;;15.13;100.00;100579.31;4957385;28;20034;-82
2023/06/27 04:07:34;;;;;;;12.68;3.45;;;;;;;15.15;100.00;100578.31;4941119;28;20101;-81
2023/06/27 04:10:00;;;;;;;14.85;3.47;;;;;;;15.15;100.00;100579.16;4957620;28;20045;-81
2023/06/27 04:12:26;;;;;;;11.93;3.83;;;;;;;15.16;100.00;100575.47;4956703;28;20035;-81
2023/06/27 04:14:52;;;;;;;16.48;3.45;;;;;;;15.12;100.00;100567.03;4956008;28;20089;-81
2023/06/27 04:17:18;;;;;;;13.63;3.83;;;;;;;15.13;100.00;100565.16;4980903;28;20038;-81
2023/06/27 04:19:44;;;;;;;12.07;4.03;;;;;;;15.13;100.00;100563.34;4976306;28;20045;-80
2023/06/27 04:22:11;;;;;;;15.50;5.13;;;;;;;15.15;100.00;100555.19;4975880;28;20382;-79
2023/06/27 04:24:37;;;;;;;16.58;4.32;;;;;;;15.12;100.00;100544.88;4959436;28;20093;-80
2023/06/27 04:27:03;;;;;;;14.50;4.95;;;;;;;15.14;100.00;100545.53;4958501;28;20042;-81
2023/06/27 04:29:29;;;;;;;12.20;4.90;;;;;;;15.17;100.00;100553.19;4959284;28;20042;-80
2023/06/27 04:31:54;;;;;;;9.90;4.38;;;;;;;15.17;100.00;100547.03;4972076;28;20034;-82
2023/06/27 04:34:20;;;;;;;14.65;5.05;;;;;;;15.18;100.00;100554.03;4961031;28;20038;-80
2023/06/27 04:36:46;;;;;;;14.80;5.32;;;;;;;15.20;100.00;100550.19;4940176;28;20034;-80
2023/06/27 04:39:12;;;;;;;12.23;5.30;;;;;;;15.21;100.00;100545.69;4972116;28;20477;-80
2023/06/27 04:41:38;;;;;;;16.55;6.07;;;;;;;15.22;100.00;100548.19;4986332;28;20048;-80
2023/06/27 04:44:04;;;;;;;11.88;4.28;;;;;;;15.23;100.00;100541.00;4993248;28;20054;-82
2023/06/27 04:46:30;;;;;;;12.57;4.95;;;;;;;15.28;100.00;100551.13;4959887;28;20061;-82
2023/06/27 04:49:00;;;;;;;13.10;4.97;;;;;;;15.29;100.00;100550.97;4945358;28;20034;-80
2023/06/27 04:51:28;;;;;;;12.52;5.07;;;;;;;15.31;100.00;100548.97;4967268;28;20125;-80
2023/06/27 04:53:54;;;;;;;11.15;5.05;;;;;;;15.32;100.00;100545.28;4939183;28;20089;-80
2023/06/27 04:56:20;;;;;;;10.00;4.60;;;;;;;15.33;100.00;100544.31;4951148;28;20389;-80
2023/06/27 04:58:46;;;;;;;12.25;4.55;;;;;;;15.35;100.00;100536.94;4955020;28;20034;-80
2023/06/27 05:01:12;;;;;;;19.92;4.63;;;;;;;15.40;100.00;100539.09;4984518;28;20088;-80
2023/06/27 05:03:38;;;;;;;21.08;5.07;;;;;;;15.41;100.00;100540.78;4959094;28;20034;-80
2023/06/27 05:06:05;;;;;;;16.20;5.00;;;;;;;15.44;100.00;100542.25;4954465;28;20127;-80
2023/06/27 05:08:32;;;;;;;13.98;5.07;;;;;;;15.46;100.00;100535.75;4958660;28;20088;-81
2023/06/27 05:10:58;;;;;;;10.13;4.30;;;;;;;15.47;100.00;100526.75;4955157;28;20531;-81
2023/06/27 05:13:24;;;;;;;11.52;5.05;;;;;;;15.50;100.00;100525.56;4963248;28;20034;-80
2023/06/27 05:15:50;;;;;;;14.30;5.15;;;;;;;15.54;100.00;100528.72;4976363;28;20037;-81
2023/06/27 05:18:16;;;;;;;7.50;5.18;;;;;;;15.56;100.00;100530.19;4974078;28;20034;-80
2023/06/27 05:20:42;;;;;;;14.02;5.47;;;;;;;15.58;100.00;100528.19;4974491;28;20113;-80
2023/06/27 05:23:08;;;;;;;10.38;4.70;;;;;;;15.62;100.00;100536.66;4958873;28;20088;-80
2023/06/27 05:25:34;;;;;;;11.98;5.43;;;;;;;15.64;100.00;100531.97;4971362;28;20059;-81
2023/06/27 05:28:00;;;;;;;12.80;5.25;;;;;;;15.65;100.00;100520.34;4971026;28;20069;-80
2023/06/27 05:30:27;;;;;;;14.15;5.45;;;;;;;15.69;100.00;100526.13;4954644;28;20030;-80
2023/06/27 05:32:54;;;;;;;11.82;5.38;;;;;;;15.69;100.00;100524.28;4955400;28;20035;-81
2023/06/27 05:35:21;;;;;;;12.43;5.03;;;;;;;15.74;100.00;100529.94;4974839;28;20037;-81
2023/06/27 05:37:47;;;;;;;13.95;5.60;;;;;;;15.79;100.00;100525.91;4943169;28;20037;-81
2023/06/27 05:40:13;;;;;;;11.77;5.55;;;;;;;15.83;100.00;100521.88;4959160;28;20052;-82
2023/06/27 05:42:40;;;;;;;14.70;6.05;;;;;;;15.86;100.00;100521.53;4979994;28;20505;-81
2023/06/27 05:45:06;;;;;;;15.65;6.07;;;;;;;15.88;100.00;100516.84;4956208;28;20037;-81
2023/06/27 05:47:32;;;;;;;9.75;5.50;;;;;;;15.93;100.00;100521.63;4980153;28;20030;-81
2023/06/27 05:49:58;;;;;;;18.20;5.68;;;;;;;15.97;100.00;100513.13;4974579;28;20050;-81
2023/06/27 05:52:24;;;;;;;16.17;5.82;;;;;;;15.99;100.00;100518.28;4971595;28;20030;-81
2023/06/27 05:54:50;;;;;;;16.48;5.70;;;;;;;16.05;100.00;100520.25;4974818;28;20042;-80
2023/06/27 05:57:16;;;;;;;19.00;7.10;;;;;;;16.06;100.00;100513.91;4975583;28;20030;-82
2023/06/27 05:59:42;;;;;;;16.25;6.32;;;;;;;16.06;100.00;100511.25;4971830;28;20045;-82
2023/06/27 06:02:08;;;;;;;16.20;6.32;;;;;;;16.09;100.00;100515.38;4956176;28;20042;-82
2023/06/27 06:04:34;;;;;;;15.07;6.20;;;;;;;16.12;100.00;100515.00;4968055;28;20183;-82
2023/06/27 06:07:00;;;;;;;21.42;6.53;;;;;;;16.12;100.00;100520.34;4978638;28;20046;-82
2023/06/27 06:09:26;;;;;;;15.60;6.05;;;;;;;16.14;100.00;100522.84;4992922;28;20112;-81
2023/06/27 06:11:52;;;;;;;13.35;6.10;;;;;;;16.14;100.00;100510.34;4987693;28;20045;-83
2023/06/27 06:14:18;;;;;;;13.85;6.10;;;;;;;16.16;100.00;100518.16;4955835;28;20034;-81
2023/06/27 06:16:43;;;;;;;13.98;6.82;;;;;;;16.19;100.00;100518.63;4938406;28;20072;-81
2023/06/27 06:19:11;;;;;;;16.02;6.00;;;;;;;16.21;100.00;100516.59;4968701;28;20034;-81
2023/06/27 06:21:37;;;;;;;16.42;6.22;;;;;;;16.23;100.00;100517.25;4973315;28;20478;-81
2023/06/27 06:24:03;;;;;;;19.23;6.57;;;;;;;16.26;100.00;100513.38;4968626;28;20088;-81
2023/06/27 06:26:29;;;;;;;17.80;7.03;;;;;;;16.29;100.00;100517.56;4977181;28;20089;-81
2023/06/27 06:28:55;;;;;;;17.23;7.00;;;;;;;16.28;100.00;100516.72;4958497;28;20125;-80
2023/06/27 06:31:22;;;;;;;18.30;7.82;;;;;;;16.31;100.00;100510.22;4979496;28;20030;-84
2023/06/27 06:33:48;;;;;;;17.48;7.00;;;;;;;16.31;100.00;100507.53;4970679;28;20035;-83
2023/06/27 06:36:14;;;;;;;21.48;7.50;;;;;;;16.32;100.00;100510.03;4958194;28;20533;-82
2023/06/27 06:38:40;;;;;;;16.55;6.53;;;;;;;16.34;100.00;100510.66;4970808;28;20031;-82
2023/06/27 06:41:07;;;;;;;13.75;7.22;;;;;;;16.36;100.00;100513.97;4969550;28;20038;-83
2023/06/27 06:43:33;;;;;;;15.48;6.88;;;;;;;16.37;100.00;100520.97;4942200;28;20038;-83
2023/06/27 06:45:59;;;;;;;19.55;7.53;;;;;;;16.40;100.00;100513.63;4975465;28;20510;-83
2023/06/27 06:48:25;;;;;;;20.77;7.85;;;;;;;16.41;100.00;100508.09;4992537;28;20499;-82
2023/06/27 06:50:52;;;;;;;17.10;7.75;;;;;;;16.42;100.00;100515.09;4979310;28;20042;-83
2023/06/27 06:53:19;;;;;;;16.65;7.97;;;;;;;16.42;100.00;100508.94;4953918;28;20053;-85
2023/06/27 06:55:45;;;;;;;21.00;8.13;;;;;;;16.42;100.00;100508.94;4961585;28;20482;-86
2023/06/27 06:58:10;;;;;;;19.50;7.65;;;;;;;16.41;100.00;100502.75;4957735;28;20038;-83
2023/06/27 07:00:36;;;;;;;19.85;7.25;;;;;;;16.41;100.00;100502.75;4957682;28;20034;-82
2023/06/27 07:03:03;;;;;;;18.30;8.32;;;;;;;16.39;100.00;100502.09;4954905;28;20039;-81
2023/06/27 07:05:29;;;;;;;18.23;8.15;;;;;;;16.36;100.00;100505.97;4942349;28;20406;-80
2023/06/27 07:07:55;;;;;;;21.85;8.35;;;;;;;16.37;100.00;100504.97;4955058;28;20512;-80
2023/06/27 07:10:21;;;;;;;23.60;8.40;;;;;;;16.36;100.00;100502.47;4977191;28;20042;-82
2023/06/27 07:12:47;;;;;;;20.65;7.63;;;;;;;16.37;100.00;100502.28;4955538;28;20039;-84
2023/06/27 07:15:15;;;;;;;18.38;8.20;;;;;;;16.39;100.00;100498.63;4952538;28;20121;-83
2023/06/27 07:17:41;;;;;;;21.48;8.57;;;;;;;16.41;100.00;100510.78;4952795;28;20031;-83
2023/06/27 07:20:08;;;;;;;24.35;8.77;;;;;;;16.44;100.00;100509.56;4957863;28;20065;-81
2023/06/27 07:22:34;;;;;;;23.67;9.27;;;;;;;16.47;100.00;100501.19;4963056;28;20035;-82
2023/06/27 07:25:00;;;;;;;19.13;8.75;;;;;;;16.49;100.00;100504.53;4962504;28;20043;-81
2023/06/27 07:27:26;;;;;;;20.70;9.02;;;;;;;16.53;100.00;100503.13;4942297;28;20038;-81
2023/06/27 07:29:52;;;;;;;22.38;8.43;;;;;;;16.53;100.00;100495.13;4941383;28;20060;-81
2023/06/27 07:32:18;;;;;;;21.67;9.38;;;;;;;16.56;100.00;100505.44;4967815;28;20045;-81
2023/06/27 07:34:44;;;;;;;17.88;10.05;;;;;;;16.62;100.00;100509.22;4961035;28;20043;-81
2023/06/27 07:37:09;;;;;;;20.10;9.57;;;;;;;16.63;100.00;100505.53;4941464;28;20043;-81
2023/06/27 07:39:36;;;;;;;28.15;10.27;;;;;;;16.74;100.00;100506.91;4973583;28;20038;-81
2023/06/27 07:42:02;;;;;;;28.88;10.55;;;;;;;16.83;100.00;100489.00;4971917;28;20034;-81
2023/06/27 07:44:27;;;;;;;23.88;10.60;;;;;;;16.95;100.00;100490.19;4973697;28;20038;-80
2023/06/27 07:46:53;;;;;;;20.00;9.95;;;;;;;17.02;100.00;100490.28;4973131;28;20054;-81
2023/06/27 07:49:19;;;;;;;27.65;11.35;;;;;;;17.13;100.00;100497.00;4942402;28;20046;-80
2023/06/27 07:51:49;;;;;;;25.00;11.23;;;;;;;17.20;100.00;100487.22;4955964;28;20034;-80
2023/06/27 07:54:15;;;;;;;22.23;11.00;;;;;;;17.23;100.00;100489.50;4975206;28;20054;-80
2023/06/27 07:56:40;;;;;;;38.13;12.55;;;;;;;17.29;100.00;100493.28;4977790;28;20369;-82
2023/06/27 07:59:07;;;;;;;22.13;11.02;;;;;;;17.34;100.00;100492.72;4974390;28;20038;-81
2023/06/27 08:01:33;;;;;;;21.88;11.63;;;;;;;17.44;100.00;100498.59;4970312;28;20038;-81
2023/06/27 08:03:59;;;;;;;25.17;12.00;;;;;;;17.52;100.00;100483.47;4953338;28;20027;-83
2023/06/27 08:06:25;;;;;;;21.60;12.55;;;;;;;17.62;100.00;100481.28;4987264;28;20030;-80
2023/06/27 08:08:51;;;;;;;24.75;12.75;;;;;;;17.62;100.00;100467.94;4965486;28;20046;-82
2023/06/27 08:11:17;;;;;;;20.40;11.95;;;;;;;17.65;100.00;100469.38;4950377;28;20609;-81
2023/06/27 08:13:43;;;;;;;21.55;12.65;;;;;;;17.68;100.00;100460.97;4962227;28;20533;-84
2023/06/27 08:16:09;;;;;;;24.98;13.05;;;;;;;17.70;100.00;100467.81;4970984;28;20050;-82
2023/06/27 08:18:36;;;;;;;22.42;12.40;;;;;;;17.72;100.00;100456.94;4981434;28;20045;-81
2023/06/27 08:21:01;;;;;;;28.42;14.27;;;;;;;17.75;100.00;100453.03;4969309;28;20085;-82
2023/06/27 08:23:28;;;;;;;28.13;14.10;;;;;;;17.76;100.00;100452.84;4959998;28;20042;-81
2023/06/27 08:25:54;;;;;;;27.88;14.30;;;;;;;17.78;100.00;100463.34;4954120;28;20070;-81
2023/06/27 08:28:20;;;;;;;30.80;15.90;;;;;;;17.81;100.00;100468.31;4987737;28;20124;-81
2023/06/27 08:30:46;;;;;;;27.85;15.77;;;;;;;17.84;100.00;100473.25;4958287;28;20045;-82
2023/06/27 08:33:12;;;;;;;24.48;14.63;;;;;;;17.90;100.00;100459.13;4972107;28;20112;-81
2023/06/27 08:35:39;;;;;;;27.40;15.70;;;;;;;17.94;100.00;100468.44;4945773;28;20031;-81
2023/06/27 08:38:06;;;;;;;29.85;15.43;;;;;;;17.99;100.00;100465.19;4943717;28;20030;-82
2023/06/27 08:40:38;;;;;;;27.45;16.05;;;;;;;18.05;100.00;100466.25;4972456;28;20054;-81
2023/06/27 08:43:05;;;;;;;25.38;15.98;;;;;;;18.05;100.00;100463.56;4946281;28;20045;-82
2023/06/27 08:45:35;;;;;;;28.33;16.15;;;;;;;18.05;100.00;100463.56;4939312;28;20030;-83
2023/06/27 08:48:02;;;;;;;29.85;17.13;;;;;;;18.06;100.00;100459.91;4979840;28;20420;-83
2023/06/27 08:50:32;;;;;;;24.02;16.90;;;;;;;18.05;100.00;100455.53;4973238;28;20122;-84
2023/06/27 08:52:59;;;;;;;30.10;17.85;;;;;;;18.05;100.00;100461.72;4976681;28;20047;-82
2023/06/27 08:55:47;;;;;;;28.65;17.95;;;;;;;18.06;100.00;100457.22;4988042;28;20031;-83
2023/06/27 08:58:17;;;;;;;29.35;17.73;;;;;;;18.11;100.00;100465.47;4971119;28;20073;-83
2023/06/27 09:00:44;;;;;;;27.23;17.55;;;;;;;18.13;100.00;100467.97;4983366;28;20057;-82
2023/06/27 09:03:11;;;;;;;33.78;19.25;;;;;;;18.15;100.00;100463.28;4977642;28;20108;-83
2023/06/27 09:05:37;;;;;;;30.90;18.83;;;;;;;18.13;100.00;100465.31;4968294;28;20031;-83
2023/06/27 09:08:03;;;;;;;34.25;20.25;;;;;;;18.11;100.00;100462.78;4955400;28;20044;-83
2023/06/27 09:10:29;;;;;;;45.97;20.75;;;;;;;18.10;100.00;100461.16;4965033;28;20133;-82
2023/06/27 09:12:56;;;;;;;33.55;20.27;;;;;;;18.08;100.00;100469.38;4955568;28;20126;-83
2023/06/27 09:15:22;;;;;;;31.50;21.98;;;;;;;18.05;100.00;100461.72;4976948;28;20583;-82
2023/06/27 09:17:48;;;;;;;37.78;21.35;;;;;;;18.04;100.00;100459.25;4964363;28;20042;-81
2023/06/27 09:20:17;;;;;;;31.58;20.63;;;;;;;18.07;100.00;100461.53;4966668;28;20122;-82
2023/06/27 09:22:43;;;;;;;35.80;22.27;;;;;;;18.04;100.00;100464.59;4961941;28;20037;-82
2023/06/27 09:25:14;;;;;;;33.08;21.98;;;;;;;18.07;100.00;100473.06;4959838;28;20050;-81
2023/06/27 09:27:40;;;;;;;36.55;24.45;;;;;;;18.06;100.00;100471.41;4959883;28;20116;-82
2023/06/27 09:30:08;;;;;;;36.97;22.55;;;;;;;18.16;100.00;100455.03;4968781;28;20065;-83
2023/06/27 09:32:50;;;;;;;38.65;22.17;;;;;;;18.25;100.00;100455.72;4969517;28;20036;-83
2023/06/27 09:35:16;;;;;;;33.55;22.33;;;;;;;18.38;100.00;100454.19;4965096;28;20412;-82
2023/06/27 09:37:42;;;;;;;35.65;22.38;;;;;;;18.47;100.00;100456.47;4971763;28;20122;-81
2023/06/27 09:40:18;;;;;;;34.85;20.67;;;;;;;18.59;100.00;100450.56;4966421;28;20125;-82
2023/06/27 09:42:52;;;;;;;33.70;21.20;;;;;;;18.62;100.00;100446.69;4958663;28;20034;-81
2023/06/27 09:45:19;;;;;;;34.92;20.65;;;;;;;18.59;100.00;100454.09;4974817;28;20073;-82
2023/06/27 09:47:51;;;;;;;36.72;21.35;;;;;;;18.59;100.00;100458.59;4960157;28;20037;-81
2023/06/27 09:50:24;;;;;;;32.08;21.00;;;;;;;18.56;100.00;100446.47;4951666;28;20104;-81
2023/06/27 09:52:52;;;;;;;30.90;20.75;;;;;;;18.63;100.00;100441.16;4978149;28;20047;-82
2023/06/27 09:55:19;;;;;;;36.25;20.08;;;;;;;18.68;100.00;100438.69;4955981;28;20052;-82
2023/06/27 09:57:46;;;;;;;30.65;19.65;;;;;;;18.73;100.00;100443.44;4958275;28;20042;-83
2023/06/27 10:00:13;;;;;;;32.95;20.40;;;;;;;18.75;100.00;100438.72;4964581;28;20037;-82
2023/06/27 10:02:41;;;;;;;32.13;20.33;;;;;;;18.74;100.00;100439.75;4963749;28;20042;-82
2023/06/27 10:05:08;;;;;;;29.70;18.55;;;;;;;18.72;100.00;100437.28;4943741;28;20030;-82
2023/06/27 10:07:34;;;;;;;26.95;19.67;;;;;;;18.71;100.00;100434.78;4950163;28;20512;-83
2023/06/27 10:10:00;;;;;;;27.55;19.13;;;;;;;18.67;100.00;100436.19;4941440;28;20041;-83
2023/06/27 10:12:27;;;;;;;26.20;18.52;;;;;;;18.65;100.00;100440.94;4979303;28;20042;-81
2023/06/27 10:14:53;;;;;;;26.67;18.27;;;;;;;18.59;100.00;100431.84;4957222;28;20441;-80
2023/06/27 10:17:20;;;;;;;28.33;17.63;;;;;;;18.60;100.00;100439.66;4942143;28;20101;-82
2023/06/27 10:19:47;;;;;;;25.33;15.57;;;;;;;18.60;100.00;100442.34;4973450;28;20034;-83
2023/06/27 10:22:18;;;;;;;23.17;15.43;;;;;;;18.62;100.00;100436.78;4979002;28;20157;-84
2023/06/27 10:24:46;;;;;;;18.73;14.15;;;;;;;18.59;100.00;100435.34;4956074;28;20374;-84
2023/06/27 10:27:18;;;;;;;20.98;13.60;;;;;;;18.60;100.00;100428.16;4974301;28;20116;-86
2023/06/27 10:29:44;;;;;;;19.70;13.43;;;;;;;18.52;100.00;100434.47;4966014;28;20026;-80
2023/06/27 10:32:14;;;;;;;22.08;13.18;;;;;;;18.54;100.00;100437.78;4964487;28;20061;-82
2023/06/27 10:34:42;;;;;;;19.20;12.25;;;;;;;18.57;100.00;100433.91;4961515;28;20493;-80
2023/06/27 10:37:22;;;;;;;18.52;12.30;;;;;;;18.58;100.00;100428.34;4941739;28;20034;-80
2023/06/27 10:40:07;;;;;;;17.35;11.60;;;;;;;18.66;100.00;100432.72;4953022;28;20480;-84
2023/06/27 10:42:32;;;;;;;17.40;11.52;;;;;;;18.67;100.00;100444.22;4941736;28;20022;-82
2023/06/27 10:45:10;;;;;;;17.70;11.55;;;;;;;18.74;100.00;100421.00;4947230;28;20042;-83
2023/06/27 10:47:41;;;;;;;16.58;11.30;;;;;;;18.93;100.00;100422.13;4972612;28;20600;-82
2023/06/27 10:50:09;;;;;;;17.77;11.35;;;;;;;19.16;100.00;100423.66;4955446;28;20177;-82
2023/06/27 10:52:35;;;;;;;16.42;9.82;;;;;;;19.37;100.00;100429.88;4957784;28;20481;-82
2023/06/27 10:55:19;;;;;;;13.25;8.90;;;;;;;19.59;100.00;100422.47;4966287;28;20051;-81
2023/06/27 10:57:48;;;;;;;12.55;8.93;;;;;;;19.73;100.00;100419.00;4986663;28;20042;-81
2023/06/27 11:00:25;;;;;;;15.10;8.70;;;;;;;19.85;100.00;100409.28;4961054;28;20046;-79
2023/06/27 11:02:54;;;;;;;12.20;8.10;;;;;;;19.84;100.00;100415.69;4961236;28;20037;-81
2023/06/27 11:05:39;;;;;;;10.57;7.13;;;;;;;19.85;100.00;100414.66;4972269;28;20027;-81
2023/06/27 11:08:09;;;;;;;10.15;6.80;;;;;;;19.82;100.00;100412.38;4944017;28;20031;-82